sensor_id;sensor_type;location;lat;lon;timestamp;pressure;altitude;pressure_sealevel;temperature;humidity
46199;BME280;31928;52.104;10.030;2023-02-03T00:01:20;101019.69;;;8.73;63.11
46199;BME280;31928;52.104;10.030;2023-02-03T00:03:48;101023.66;;;8.77;63.05
46199;BME280;31928;52.104;10.030;2023-02-03T00:06:14;101018.75;;;8.81;63.49
46199;BME280;31928;52.104;10.030;2023-02-03T00:08:41;101006.50;;;8.86;62.89
46199;BME280;31928;52.104;10.030;2023-02-03T00:11:08;101005.09;;;8.90;62.88
46199;BME280;31928;52.104;10.030;2023-02-03T00:13:34;101005.53;;;8.94;63.22
46199;BME280;31928;52.104;10.030;2023-02-03T00:16:01;101009.69;;;8.96;63.30
46199;BME280;31928;52.104;10.030;2023-02-03T00:18:28;101009.97;;;9.01;62.86
46199;BME280;31928;52.104;10.030;2023-02-03T00:20:54;101011.44;;;9.03;63.47
46199;BME280;31928;52.104;10.030;2023-02-03T00:23:21;101003.69;;;9.08;63.82
46199;BME280;31928;52.104;10.030;2023-02-03T00:25:47;100992.41;;;9.13;64.27
46199;BME280;31928;52.104;10.030;2023-02-03T00:28:14;100998.66;;;9.20;65.05
46199;BME280;31928;52.104;10.030;2023-02-03T00:30:40;101003.09;;;9.27;65.66
46199;BME280;31928;52.104;10.030;2023-02-03T00:33:06;101009.13;;;9.36;66.32
46199;BME280;31928;52.104;10.030;2023-02-03T00:35:37;100987.03;;;9.48;66.67
46199;BME280;31928;52.104;10.030;2023-02-03T00:38:04;100981.34;;;9.57;66.98
46199;BME280;31928;52.104;10.030;2023-02-03T00:40:30;100977.78;;;9.71;66.01
46199;BME280;31928;52.104;10.030;2023-02-03T00:42:57;100971.28;;;9.80;66.08
46199;BME280;31928;52.104;10.030;2023-02-03T00:45:23;100983.09;;;9.92;66.20
46199;BME280;31928;52.104;10.030;2023-02-03T00:47:52;100972.13;;;10.02;65.66
46199;BME280;31928;52.104;10.030;2023-02-03T00:50:18;100986.19;;;10.10;65.63
46199;BME280;31928;52.104;10.030;2023-02-03T00:52:45;100977.97;;;10.18;66.02
46199;BME280;31928;52.104;10.030;2023-02-03T00:55:11;100983.84;;;10.28;65.22
46199;BME280;31928;52.104;10.030;2023-02-03T00:57:38;100985.53;;;10.35;65.20
46199;BME280;31928;52.104;10.030;2023-02-03T01:00:05;100980.22;;;10.42;64.79
46199;BME280;31928;52.104;10.030;2023-02-03T01:02:31;100974.47;;;10.45;65.08
46199;BME280;31928;52.104;10.030;2023-02-03T01:04:58;100984.00;;;10.54;64.47
46199;BME280;31928;52.104;10.030;2023-02-03T01:07:24;100975.16;;;10.60;64.23
46199;BME280;31928;52.104;10.030;2023-02-03T01:09:51;100972.72;;;10.65;64.15
46199;BME280;31928;52.104;10.030;2023-02-03T01:12:17;100956.88;;;10.70;63.83
46199;BME280;31928;52.104;10.030;2023-02-03T01:14:44;100970.06;;;10.71;64.04
46199;BME280;31928;52.104;10.030;2023-02-03T01:17:10;100974.25;;;10.80;63.75
46199;BME280;31928;52.104;10.030;2023-02-03T01:19:37;100965.59;;;10.84;63.45
46199;BME280;31928;52.104;10.030;2023-02-03T01:22:03;100948.69;;;10.90;62.87
46199;BME280;31928;52.104;10.030;2023-02-03T01:24:30;100959.03;;;10.93;62.80
46199;BME280;31928;52.104;10.030;2023-02-03T01:26:56;100964.63;;;10.98;62.91
46199;BME280;31928;52.104;10.030;2023-02-03T01:29:23;100986.72;;;11.00;63.21
46199;BME280;31928;52.104;10.030;2023-02-03T01:31:50;100968.13;;;11.05;62.70
46199;BME280;31928;52.104;10.030;2023-02-03T01:34:16;100970.72;;;11.33;61.07
46199;BME280;31928;52.104;10.030;2023-02-03T01:36:43;100978.94;;;11.18;61.84
46199;BME280;31928;52.104;10.030;2023-02-03T01:39:12;100976.44;;;11.17;62.10
46199;BME280;31928;52.104;10.030;2023-02-03T01:41:39;100984.31;;;11.18;62.06
46199;BME280;31928;52.104;10.030;2023-02-03T01:44:44;100985.97;;;11.32;61.28
46199;BME280;31928;52.104;10.030;2023-02-03T01:47:15;100977.53;;;11.29;61.69
46199;BME280;31928;52.104;10.030;2023-02-03T01:49:50;100973.59;;;11.31;61.52
46199;BME280;31928;52.104;10.030;2023-02-03T01:52:18;100965.72;;;11.30;61.65
46199;BME280;31928;52.104;10.030;2023-02-03T01:54:47;100963.06;;;11.36;61.29
46199;BME280;31928;52.104;10.030;2023-02-03T01:57:21;100958.13;;;11.39;61.40
46199;BME280;31928;52.104;10.030;2023-02-03T01:59:51;100960.00;;;11.39;61.68
46199;BME280;31928;52.104;10.030;2023-02-03T02:02:19;100969.88;;;11.38;61.65
46199;BME280;31928;52.104;10.030;2023-02-03T02:07:15;100951.31;;;11.43;61.59
46199;BME280;31928;52.104;10.030;2023-02-03T02:09:42;100961.28;;;11.69;60.33
46199;BME280;31928;52.104;10.030;2023-02-03T02:12:10;100943.28;;;11.50;61.27
46199;BME280;31928;52.104;10.030;2023-02-03T02:14:37;100936.91;;;11.51;61.27
46199;BME280;31928;52.104;10.030;2023-02-03T02:17:14;100934.44;;;11.56;61.31
46199;BME280;31928;52.104;10.030;2023-02-03T02:22:29;100911.28;;;11.55;61.55
46199;BME280;31928;52.104;10.030;2023-02-03T02:25:13;100923.91;;;11.80;59.91
46199;BME280;31928;52.104;10.030;2023-02-03T02:34:03;100910.88;;;11.58;61.01
46199;BME280;31928;52.104;10.030;2023-02-03T02:36:59;100915.44;;;11.64;60.79
46199;BME280;31928;52.104;10.030;2023-02-03T02:39:38;100885.28;;;11.62;60.84
46199;BME280;31928;52.104;10.030;2023-02-03T02:42:17;100879.91;;;11.62;60.81
46199;BME280;31928;52.104;10.030;2023-02-03T02:44:57;100848.06;;;11.59;60.86
46199;BME280;31928;52.104;10.030;2023-02-03T02:47:24;100854.69;;;11.56;60.64
46199;BME280;31928;52.104;10.030;2023-02-03T02:50:21;100843.75;;;11.71;60.13
46199;BME280;31928;52.104;10.030;2023-02-03T02:52:51;100851.41;;;11.61;60.48
46199;BME280;31928;52.104;10.030;2023-02-03T02:55:30;100857.56;;;11.68;60.05
46199;BME280;31928;52.104;10.030;2023-02-03T02:58:02;100862.56;;;11.64;60.26
46199;BME280;31928;52.104;10.030;2023-02-03T03:00:30;100842.72;;;11.59;60.22
46199;BME280;31928;52.104;10.030;2023-02-03T03:02:57;100863.16;;;11.60;60.34
46199;BME280;31928;52.104;10.030;2023-02-03T03:05:32;100838.19;;;11.66;59.60
46199;BME280;31928;52.104;10.030;2023-02-03T03:08:00;100843.13;;;11.69;59.87
46199;BME280;31928;52.104;10.030;2023-02-03T03:10:29;100822.06;;;11.72;59.53
46199;BME280;31928;52.104;10.030;2023-02-03T03:13:01;100825.56;;;11.73;59.46
46199;BME280;31928;52.104;10.030;2023-02-03T03:15:31;100799.31;;;11.75;59.01
46199;BME280;31928;52.104;10.030;2023-02-03T03:20:32;100826.19;;;11.75;59.33
46199;BME280;31928;52.104;10.030;2023-02-03T03:23:05;100826.97;;;11.82;58.78
46199;BME280;31928;52.104;10.030;2023-02-03T03:25:38;100840.00;;;11.85;59.00
46199;BME280;31928;52.104;10.030;2023-02-03T03:28:24;100850.72;;;11.85;58.72
46199;BME280;31928;52.104;10.030;2023-02-03T03:30:52;100857.16;;;11.84;58.81
46199;BME280;31928;52.104;10.030;2023-02-03T03:33:20;100849.09;;;11.84;58.97
46199;BME280;31928;52.104;10.030;2023-02-03T03:35:54;100852.19;;;11.87;58.95
46199;BME280;31928;52.104;10.030;2023-02-03T03:38:29;100859.63;;;11.92;58.78
46199;BME280;31928;52.104;10.030;2023-02-03T03:41:05;100862.09;;;11.93;58.73
46199;BME280;31928;52.104;10.030;2023-02-03T03:43:37;100846.19;;;11.92;58.68
46199;BME280;31928;52.104;10.030;2023-02-03T03:46:12;100858.78;;;11.91;58.60
46199;BME280;31928;52.104;10.030;2023-02-03T03:49:01;100838.53;;;12.01;58.30
46199;BME280;31928;52.104;10.030;2023-02-03T03:51:46;100814.16;;;11.97;58.46
46199;BME280;31928;52.104;10.030;2023-02-03T03:54:16;100822.00;;;11.92;58.40
46199;BME280;31928;52.104;10.030;2023-02-03T03:59:23;100801.13;;;11.94;58.04
46199;BME280;31928;52.104;10.030;2023-02-03T04:01:51;100800.50;;;11.92;57.85
46199;BME280;31928;52.104;10.030;2023-02-03T04:04:18;100801.34;;;11.92;58.13
46199;BME280;31928;52.104;10.030;2023-02-03T04:06:46;100801.75;;;11.96;58.15
46199;BME280;31928;52.104;10.030;2023-02-03T04:09:12;100812.91;;;11.93;58.04
46199;BME280;31928;52.104;10.030;2023-02-03T04:11:39;100795.53;;;11.95;57.87
46199;BME280;31928;52.104;10.030;2023-02-03T04:14:24;100788.91;;;11.98;57.85
46199;BME280;31928;52.104;10.030;2023-02-03T04:16:50;100795.94;;;11.98;57.80
46199;BME280;31928;52.104;10.030;2023-02-03T04:19:17;100792.66;;;11.97;57.24
46199;BME280;31928;52.104;10.030;2023-02-03T04:21:43;100793.25;;;11.98;57.05
46199;BME280;31928;52.104;10.030;2023-02-03T04:24:10;100776.53;;;11.97;56.80
46199;BME280;31928;52.104;10.030;2023-02-03T04:26:37;100779.81;;;11.98;57.31
46199;BME280;31928;52.104;10.030;2023-02-03T04:29:04;100782.28;;;12.00;57.31
46199;BME280;31928;52.104;10.030;2023-02-03T04:31:31;100781.47;;;11.99;57.26
46199;BME280;31928;52.104;10.030;2023-02-03T04:33:57;100769.69;;;12.00;56.80
46199;BME280;31928;52.104;10.030;2023-02-03T04:36:24;100737.00;;;12.03;57.14
46199;BME280;31928;52.104;10.030;2023-02-03T04:38:51;100774.84;;;12.02;57.18
46199;BME280;31928;52.104;10.030;2023-02-03T04:41:17;100755.81;;;12.03;56.90
46199;BME280;31928;52.104;10.030;2023-02-03T04:43:44;100775.25;;;12.05;56.79
46199;BME280;31928;52.104;10.030;2023-02-03T04:46:10;100781.22;;;12.07;56.65
46199;BME280;31928;52.104;10.030;2023-02-03T04:48:37;100787.03;;;12.04;56.91
46199;BME280;31928;52.104;10.030;2023-02-03T04:51:05;100769.88;;;12.05;56.84
46199;BME280;31928;52.104;10.030;2023-02-03T04:53:32;100766.56;;;12.03;56.70
46199;BME280;31928;52.104;10.030;2023-02-03T04:55:59;100777.72;;;12.07;57.01
46199;BME280;31928;52.104;10.030;2023-02-03T04:58:26;100758.56;;;12.34;56.53
46199;BME280;31928;52.104;10.030;2023-02-03T05:00:53;100771.47;;;12.13;56.79
46199;BME280;31928;52.104;10.030;2023-02-03T05:03:20;100774.81;;;12.08;57.29
46199;BME280;31928;52.104;10.030;2023-02-03T05:05:50;100771.94;;;12.03;56.96
46199;BME280;31928;52.104;10.030;2023-02-03T05:08:16;100766.31;;;12.11;57.32
46199;BME280;31928;52.104;10.030;2023-02-03T05:10:43;100764.09;;;12.02;57.11
46199;BME280;31928;52.104;10.030;2023-02-03T05:13:09;100767.78;;;12.07;56.97
46199;BME280;31928;52.104;10.030;2023-02-03T05:15:36;100765.28;;;12.12;57.04
46199;BME280;31928;52.104;10.030;2023-02-03T05:18:02;100761.56;;;12.13;57.30
46199;BME280;31928;52.104;10.030;2023-02-03T05:20:29;100756.19;;;12.13;56.96
46199;BME280;31928;52.104;10.030;2023-02-03T05:22:57;100754.09;;;12.15;57.08
46199;BME280;31928;52.104;10.030;2023-02-03T05:25:23;100762.38;;;12.14;56.79
46199;BME280;31928;52.104;10.030;2023-02-03T05:27:50;100746.25;;;12.14;57.02
46199;BME280;31928;52.104;10.030;2023-02-03T05:30:17;100752.47;;;12.14;56.75
46199;BME280;31928;52.104;10.030;2023-02-03T05:32:43;100749.44;;;12.42;56.46
46199;BME280;31928;52.104;10.030;2023-02-03T05:35:10;100740.84;;;12.20;56.48
46199;BME280;31928;52.104;10.030;2023-02-03T05:37:36;100747.91;;;12.15;56.76
46199;BME280;31928;52.104;10.030;2023-02-03T05:40:03;100718.34;;;12.15;56.51
46199;BME280;31928;52.104;10.030;2023-02-03T05:42:50;100727.75;;;12.37;56.22
46199;BME280;31928;52.104;10.030;2023-02-03T05:45:17;100708.41;;;12.15;56.45
46199;BME280;31928;52.104;10.030;2023-02-03T05:47:43;100711.09;;;12.15;56.80
46199;BME280;31928;52.104;10.030;2023-02-03T05:50:10;100713.59;;;12.10;56.59
46199;BME280;31928;52.104;10.030;2023-02-03T05:52:36;100727.03;;;12.10;56.39
46199;BME280;31928;52.104;10.030;2023-02-03T05:55:03;100736.75;;;12.11;56.41
46199;BME280;31928;52.104;10.030;2023-02-03T05:57:30;100724.25;;;12.36;56.06
46199;BME280;31928;52.104;10.030;2023-02-03T05:59:57;100722.91;;;12.14;56.42
46199;BME280;31928;52.104;10.030;2023-02-03T06:02:24;100717.72;;;12.13;56.57
46199;BME280;31928;52.104;10.030;2023-02-03T06:04:50;100725.59;;;12.14;56.69
46199;BME280;31928;52.104;10.030;2023-02-03T06:07:17;100716.91;;;12.12;56.77
46199;BME280;31928;52.104;10.030;2023-02-03T06:09:43;100700.38;;;12.09;56.84
46199;BME280;31928;52.104;10.030;2023-02-03T06:12:10;100705.34;;;12.12;56.50
46199;BME280;31928;52.104;10.030;2023-02-03T06:14:36;100711.13;;;12.09;56.28
46199;BME280;31928;52.104;10.030;2023-02-03T06:17:03;100726.00;;;12.11;56.54
46199;BME280;31928;52.104;10.030;2023-02-03T06:19:29;100722.50;;;12.11;56.86
46199;BME280;31928;52.104;10.030;2023-02-03T06:21:56;100720.63;;;12.11;56.80
46199;BME280;31928;52.104;10.030;2023-02-03T06:24:22;100704.94;;;12.08;56.91
46199;BME280;31928;52.104;10.030;2023-02-03T06:26:49;100704.94;;;12.08;57.38
46199;BME280;31928;52.104;10.030;2023-02-03T06:29:15;100721.28;;;12.07;57.53
46199;BME280;31928;52.104;10.030;2023-02-03T06:31:42;100725.19;;;12.11;57.55
46199;BME280;31928;52.104;10.030;2023-02-03T06:34:08;100715.69;;;12.08;57.73
46199;BME280;31928;52.104;10.030;2023-02-03T06:36:35;100701.22;;;12.09;57.80
46199;BME280;31928;52.104;10.030;2023-02-03T06:39:01;100713.00;;;12.08;57.74
46199;BME280;31928;52.104;10.030;2023-02-03T06:41:28;100731.81;;;12.08;57.95
46199;BME280;31928;52.104;10.030;2023-02-03T06:43:56;100718.81;;;12.05;57.98
46199;BME280;31928;52.104;10.030;2023-02-03T06:46:22;100704.94;;;12.08;57.87
46199;BME280;31928;52.104;10.030;2023-02-03T06:48:53;100714.03;;;12.07;58.17
46199;BME280;31928;52.104;10.030;2023-02-03T06:51:19;100717.34;;;12.09;58.23
46199;BME280;31928;52.104;10.030;2023-02-03T06:53:46;100709.50;;;12.08;58.31
46199;BME280;31928;52.104;10.030;2023-02-03T06:56:12;100710.91;;;12.10;58.17
46199;BME280;31928;52.104;10.030;2023-02-03T06:58:39;100703.69;;;12.11;58.36
46199;BME280;31928;52.104;10.030;2023-02-03T07:01:05;100715.25;;;12.11;58.73
46199;BME280;31928;52.104;10.030;2023-02-03T07:03:32;100702.44;;;12.13;58.44
46199;BME280;31928;52.104;10.030;2023-02-03T07:05:58;100702.84;;;12.10;58.52
46199;BME280;31928;52.104;10.030;2023-02-03T07:08:25;100711.53;;;12.12;58.53
46199;BME280;31928;52.104;10.030;2023-02-03T07:10:53;100708.84;;;12.12;58.60
46199;BME280;31928;52.104;10.030;2023-02-03T07:13:19;100709.88;;;12.11;58.39
46199;BME280;31928;52.104;10.030;2023-02-03T07:15:46;100698.53;;;12.09;58.64
46199;BME280;31928;52.104;10.030;2023-02-03T07:18:13;100703.91;;;12.09;58.85
46199;BME280;31928;52.104;10.030;2023-02-03T07:20:46;100715.69;;;12.08;58.80
46199;BME280;31928;52.104;10.030;2023-02-03T07:23:13;100714.91;;;12.01;59.37
46199;BME280;31928;52.104;10.030;2023-02-03T07:25:39;100677.31;;;12.01;59.40
46199;BME280;31928;52.104;10.030;2023-02-03T07:28:06;100683.28;;;12.03;59.56
46199;BME280;31928;52.104;10.030;2023-02-03T07:30:32;100677.31;;;12.01;59.46
46199;BME280;31928;52.104;10.030;2023-02-03T07:32:59;100680.19;;;12.00;59.61
46199;BME280;31928;52.104;10.030;2023-02-03T07:35:25;100678.97;;;11.96;59.63
46199;BME280;31928;52.104;10.030;2023-02-03T07:37:52;100664.53;;;11.91;60.07
46199;BME280;31928;52.104;10.030;2023-02-03T07:40:19;100695.94;;;11.90;60.26
46199;BME280;31928;52.104;10.030;2023-02-03T07:42:47;100678.59;;;11.93;59.93
46199;BME280;31928;52.104;10.030;2023-02-03T07:45:16;100667.88;;;11.86;60.49
46199;BME280;31928;52.104;10.030;2023-02-03T07:47:43;100670.34;;;11.88;60.37
46199;BME280;31928;52.104;10.030;2023-02-03T07:50:10;100651.38;;;12.13;59.22
46199;BME280;31928;52.104;10.030;2023-02-03T07:52:37;100666.22;;;11.85;60.61
46199;BME280;31928;52.104;10.030;2023-02-03T07:55:04;100648.47;;;11.78;60.62
46199;BME280;31928;52.104;10.030;2023-02-03T07:57:30;100647.50;;;12.09;59.33
46199;BME280;31928;52.104;10.030;2023-02-03T07:59:56;100664.34;;;11.86;60.14
46199;BME280;31928;52.104;10.030;2023-02-03T08:02:23;100626.97;;;11.78;60.92
46199;BME280;31928;52.104;10.030;2023-02-03T08:04:49;100627.78;;;11.78;61.14
46199;BME280;31928;52.104;10.030;2023-02-03T08:07:16;100659.22;;;11.78;61.25
46199;BME280;31928;52.104;10.030;2023-02-03T08:09:42;100663.81;;;11.71;61.19
46199;BME280;31928;52.104;10.030;2023-02-03T08:12:09;100667.91;;;11.73;61.16
46199;BME280;31928;52.104;10.030;2023-02-03T08:14:35;100639.38;;;11.79;60.70
46199;BME280;31928;52.104;10.030;2023-02-03T08:17:02;100651.41;;;11.70;61.43
46199;BME280;31928;52.104;10.030;2023-02-03T08:19:28;100661.28;;;11.76;61.33
46199;BME280;31928;52.104;10.030;2023-02-03T08:21:55;100641.44;;;11.77;61.43
46199;BME280;31928;52.104;10.030;2023-02-03T08:24:22;100650.19;;;11.66;61.83
46199;BME280;31928;52.104;10.030;2023-02-03T08:26:48;100658.44;;;11.71;62.01
46199;BME280;31928;52.104;10.030;2023-02-03T08:29:15;100625.78;;;11.74;61.57
46199;BME280;31928;52.104;10.030;2023-02-03T08:31:41;100634.84;;;11.73;61.69
46199;BME280;31928;52.104;10.030;2023-02-03T08:34:08;100634.31;;;11.95;60.95
46199;BME280;31928;52.104;10.030;2023-02-03T08:36:34;100633.63;;;11.69;62.10
46199;BME280;31928;52.104;10.030;2023-02-03T08:39:07;100639.41;;;11.72;61.84
46199;BME280;31928;52.104;10.030;2023-02-03T08:41:33;100632.81;;;11.68;61.83
46199;BME280;31928;52.104;10.030;2023-02-03T08:44:00;100627.81;;;11.72;61.91
46199;BME280;31928;52.104;10.030;2023-02-03T08:46:27;100634.84;;;11.73;61.88
46199;BME280;31928;52.104;10.030;2023-02-03T08:48:53;100632.78;;;11.75;61.48
46199;BME280;31928;52.104;10.030;2023-02-03T08:51:22;100649.50;;;11.77;61.58
46199;BME280;31928;52.104;10.030;2023-02-03T08:53:49;100648.47;;;11.78;61.52
46199;BME280;31928;52.104;10.030;2023-02-03T08:56:16;100658.19;;;11.79;61.77
46199;BME280;31928;52.104;10.030;2023-02-03T08:58:43;100642.53;;;12.06;60.29
46199;BME280;31928;52.104;10.030;2023-02-03T09:01:11;100645.53;;;11.86;61.48
46199;BME280;31928;52.104;10.030;2023-02-03T09:03:39;100636.88;;;11.84;61.15
46199;BME280;31928;52.104;10.030;2023-02-03T09:06:06;100637.47;;;11.86;61.22
46199;BME280;31928;52.104;10.030;2023-02-03T09:08:33;100638.50;;;11.85;61.06
46199;BME280;31928;52.104;10.030;2023-02-03T09:10:59;100650.34;;;12.14;59.88
46199;BME280;31928;52.104;10.030;2023-02-03T09:13:26;100651.72;;;11.93;61.05
46199;BME280;31928;52.104;10.030;2023-02-03T09:15:52;100673.66;;;11.83;61.15
46199;BME280;31928;52.104;10.030;2023-02-03T09:18:19;100632.91;;;11.93;61.14
46199;BME280;31928;52.104;10.030;2023-02-03T09:20:45;100641.34;;;11.96;61.28
46199;BME280;31928;52.104;10.030;2023-02-03T09:23:12;100661.00;;;11.97;61.36
46199;BME280;31928;52.104;10.030;2023-02-03T09:25:38;100666.97;;;11.98;61.83
46199;BME280;31928;52.104;10.030;2023-02-03T09:28:05;100665.72;;;12.01;61.13
46199;BME280;31928;52.104;10.030;2023-02-03T09:30:31;100674.41;;;12.03;61.30
46199;BME280;31928;52.104;10.030;2023-02-03T09:32:58;100676.88;;;12.04;61.17
46199;BME280;31928;52.104;10.030;2023-02-03T09:35:24;100679.56;;;12.04;61.48
46199;BME280;31928;52.104;10.030;2023-02-03T09:37:52;100666.13;;;12.04;61.55
46199;BME280;31928;52.104;10.030;2023-02-03T09:40:22;100673.91;;;12.12;60.98
46199;BME280;31928;52.104;10.030;2023-02-03T09:42:59;100654.06;;;12.13;60.70
46199;BME280;31928;52.104;10.030;2023-02-03T09:45:29;100632.97;;;12.10;61.08
46199;BME280;31928;52.104;10.030;2023-02-03T09:48:11;100641.66;;;12.12;60.96
46199;BME280;31928;52.104;10.030;2023-02-03T09:50:41;100644.13;;;12.14;60.81
46199;BME280;31928;52.104;10.030;2023-02-03T09:53:36;100632.03;;;12.29;60.20
46199;BME280;31928;52.104;10.030;2023-02-03T09:56:15;100620.53;;;12.22;60.69
46199;BME280;31928;52.104;10.030;2023-02-03T09:58:43;100636.03;;;12.20;60.97
46199;BME280;31928;52.104;10.030;2023-02-03T10:01:10;100643.06;;;12.21;61.11
46199;BME280;31928;52.104;10.030;2023-02-03T10:03:46;100655.66;;;12.27;60.84
46199;BME280;31928;52.104;10.030;2023-02-03T10:06:32;100656.28;;;12.23;61.19
46199;BME280;31928;52.104;10.030;2023-02-03T10:09:31;100653.53;;;12.29;61.13
46199;BME280;31928;52.104;10.030;2023-02-03T10:17:31;100636.59;;;12.29;61.17
46199;BME280;31928;52.104;10.030;2023-02-03T10:22:37;100632.50;;;12.26;60.66
46199;BME280;31928;52.104;10.030;2023-02-03T10:25:39;100637.59;;;12.34;60.58
46199;BME280;31928;52.104;10.030;2023-02-03T10:28:13;100653.31;;;12.31;60.72
46199;BME280;31928;52.104;10.030;2023-02-03T10:30:43;100651.13;;;12.52;59.56
46199;BME280;31928;52.104;10.030;2023-02-03T10:33:13;100660.56;;;12.30;60.34
46199;BME280;31928;52.104;10.030;2023-02-03T10:35:48;100643.81;;;12.28;60.78
46199;BME280;31928;52.104;10.030;2023-02-03T10:41:01;100649.66;;;12.25;60.45
46199;BME280;31928;52.104;10.030;2023-02-03T10:43:28;100643.25;;;12.26;60.51
46199;BME280;31928;52.104;10.030;2023-02-03T10:46:20;100646.69;;;12.33;60.56
46199;BME280;31928;52.104;10.030;2023-02-03T10:48:52;100674.06;;;12.24;60.71
46199;BME280;31928;52.104;10.030;2023-02-03T10:51:24;100672.97;;;12.31;60.68
46199;BME280;31928;52.104;10.030;2023-02-03T10:53:51;100673.84;;;12.25;60.41
46199;BME280;31928;52.104;10.030;2023-02-03T10:56:33;100675.84;;;12.36;60.08
46199;BME280;31928;52.104;10.030;2023-02-03T10:59:01;100673.03;;;12.25;60.13
46199;BME280;31928;52.104;10.030;2023-02-03T11:03:58;100698.97;;;12.37;60.18
46199;BME280;31928;52.104;10.030;2023-02-03T11:06:26;100707.94;;;12.31;60.09
46199;BME280;31928;52.104;10.030;2023-02-03T11:08:53;100708.53;;;12.33;60.24
46199;BME280;31928;52.104;10.030;2023-02-03T11:11:23;100694.88;;;12.35;59.94
46199;BME280;31928;52.104;10.030;2023-02-03T11:16:32;100667.78;;;12.36;58.49
46199;BME280;31928;52.104;10.030;2023-02-03T11:19:04;100678.31;;;12.38;58.78
46199;BME280;31928;52.104;10.030;2023-02-03T11:24:24;100679.09;;;12.45;58.65
46199;BME280;31928;52.104;10.030;2023-02-03T11:26:59;100687.81;;;12.40;58.69
46199;BME280;31928;52.104;10.030;2023-02-03T11:30:14;100692.72;;;12.50;58.49
46199;BME280;31928;52.104;10.030;2023-02-03T11:32:45;100664.66;;;12.39;58.08
46199;BME280;31928;52.104;10.030;2023-02-03T11:35:27;100709.28;;;12.47;57.93
46199;BME280;31928;52.104;10.030;2023-02-03T11:37:56;100682.44;;;12.40;57.91
46199;BME280;31928;52.104;10.030;2023-02-03T11:40:29;100682.00;;;12.43;58.06
46199;BME280;31928;52.104;10.030;2023-02-03T11:45:26;100695.19;;;12.51;57.71
46199;BME280;31928;52.104;10.030;2023-02-03T11:48:11;100690.66;;;12.52;58.13
46199;BME280;31928;52.104;10.030;2023-02-03T11:59:10;100710.81;;;12.67;57.02
46199;BME280;31928;52.104;10.030;2023-02-03T12:05:03;100727.53;;;12.69;56.86
46199;BME280;31928;52.104;10.030;2023-02-03T12:10:26;100718.16;;;12.78;56.33
46199;BME280;31928;52.104;10.030;2023-02-03T12:13:09;100740.50;;;12.78;56.57
46199;BME280;31928;52.104;10.030;2023-02-03T12:24:09;100747.94;;;12.83;55.67
46199;BME280;31928;52.104;10.030;2023-02-03T12:26:49;100760.41;;;12.77;54.60
46199;BME280;31928;52.104;10.030;2023-02-03T12:29:24;100751.69;;;12.75;54.45
46199;BME280;31928;52.104;10.030;2023-02-03T12:34:53;100761.59;;;12.81;54.70
46199;BME280;31928;52.104;10.030;2023-02-03T12:37:26;100757.03;;;12.82;54.30
46199;BME280;31928;52.104;10.030;2023-02-03T12:42:36;100758.91;;;12.88;54.68
46199;BME280;31928;52.104;10.030;2023-02-03T12:45:12;100748.53;;;12.85;53.69
46199;BME280;31928;52.104;10.030;2023-02-03T12:47:54;100759.50;;;12.90;54.04
46199;BME280;31928;52.104;10.030;2023-02-03T12:50:47;100767.31;;;12.98;54.68
46199;BME280;31928;52.104;10.030;2023-02-03T12:53:20;100750.59;;;12.89;53.53
46199;BME280;31928;52.104;10.030;2023-02-03T12:55:55;100764.47;;;12.93;53.32
46199;BME280;31928;52.104;10.030;2023-02-03T13:01:17;100743.69;;;13.00;53.98
46199;BME280;31928;52.104;10.030;2023-02-03T13:04:05;100751.94;;;13.05;54.42
46199;BME280;31928;52.104;10.030;2023-02-03T13:06:51;100756.50;;;13.04;54.17
46199;BME280;31928;52.104;10.030;2023-02-03T13:12:08;100759.19;;;13.04;53.33
46199;BME280;31928;52.104;10.030;2023-02-03T13:14:46;100758.13;;;13.05;53.17
46199;BME280;31928;52.104;10.030;2023-02-03T13:17:24;100775.13;;;13.06;52.97
46199;BME280;31928;52.104;10.030;2023-02-03T13:19:57;100772.22;;;13.07;52.28
46199;BME280;31928;52.104;10.030;2023-02-03T13:22:25;100771.00;;;13.03;51.59
46199;BME280;31928;52.104;10.030;2023-02-03T13:25:14;100762.88;;;13.10;51.75
46199;BME280;31928;52.104;10.030;2023-02-03T13:28:01;100773.81;;;13.15;52.27
46199;BME280;31928;52.104;10.030;2023-02-03T13:41:50;100797.88;;;13.10;51.52
46199;BME280;31928;52.104;10.030;2023-02-03T13:44:20;100782.53;;;13.10;51.08
46199;BME280;31928;52.104;10.030;2023-02-03T13:46:51;100788.56;;;13.06;49.83
46199;BME280;31928;52.104;10.030;2023-02-03T13:49:24;100801.16;;;13.12;51.11
46199;BME280;31928;52.104;10.030;2023-02-03T13:51:52;100806.38;;;13.07;50.35
46199;BME280;31928;52.104;10.030;2023-02-03T13:56:59;100815.66;;;13.11;50.17
46199;BME280;31928;52.104;10.030;2023-02-03T14:07:32;100827.97;;;13.24;51.01
46199;BME280;31928;52.104;10.030;2023-02-03T14:10:22;100818.03;;;13.25;50.50
46199;BME280;31928;52.104;10.030;2023-02-03T14:25:56;100823.47;;;13.19;48.68
46199;BME280;31928;52.104;10.030;2023-02-03T14:31:30;100830.53;;;13.20;49.36
46199;BME280;31928;52.104;10.030;2023-02-03T14:34:04;100846.31;;;13.10;47.51
46199;BME280;31928;52.104;10.030;2023-02-03T14:36:40;100859.59;;;13.05;46.95
46199;BME280;31928;52.104;10.030;2023-02-03T14:42:07;100838.84;;;13.12;48.78
46199;BME280;31928;52.104;10.030;2023-02-03T14:48:04;100855.88;;;13.06;47.24
46199;BME280;31928;52.104;10.030;2023-02-03T14:50:47;100847.22;;;12.97;45.47
46199;BME280;31928;52.104;10.030;2023-02-03T14:58:45;100833.03;;;13.15;47.92